Aérodrome :
LOGIN :

S'inscrire | Disclaimer

   EN    FR    IT 

 










Légende :    VFR   VFR Marginal   IFR   IFR Intensif   IFR Très Intensif
Visi : 
Plafond : 
>= 8 km
>= 3000ft
5 à 8 km
1000 à 3000 ft
1500m à 5 km
500 à 1000 ft
800 à 1500m
200 à 500 ft
< 800m
< 200 ft
Symboles :   Orages  Brouillard  Fortes neiges  Fortes précipitations  Vent > 20 kt
SIGMETs :   Divers  Orages  Givrage  Turbulence  Onde Orograph.  Cendres Volcan.







- Altitude de l'aérodrome : 1830 ft


EBLB - Butgenbach Elsenborn

DERNIER METAR :
  • 220255Z AUTO 00000KT 8000 NCD 10/10 Q1019 BLU

METARs EXPIRÉS :
  • 220249Z AUTO 00000KT 4600 NCD 11/10 Q1020 GRN
  • 220243Z AUTO VRB01KT 6000 NCD 11/10 Q1020 WHT
  • 220225Z AUTO VRB01KT 2700 NCD 11/10 Q1020 YLO
  • 220214Z AUTO 00000KT 4800 NCD 11/10 Q1020 GRN
  • 220155Z AUTO 00000KT 3000 BR NCD 11/11 Q1020 YLO
  • 220151Z AUTO 00000KT 1000 BR NCD 11/11 Q1020 AMB
  • 220125Z AUTO 00000KT 5000 NCD 11/11 Q1020 WHT
  • 220120Z AUTO 00000KT 4800 NCD 12/11 Q1020 GRN
  • 220106Z AUTO VRB01KT 4900 NCD 12/11 Q1020 GRN
  • 220055Z AUTO VRB01KT 5000 NCD 12/12 Q1020 WHT
  • 220025Z AUTO VRB01KT 6000 BR NCD 13/12 Q1020 WHT
  • 220021Z AUTO VRB01KT 0350 BR NCD 13/12 Q1020 RED
  • 220020Z AUTO VRB01KT 0900 BR NCD 13/12 Q1020 AMB

Prévision TAF périmée.
Pas de NOTAMs connus pour ce terrain.



MET'MAP, la Météo Aéronautique d'un coup d'oeil ! - Copyright ORBIFLY Décembre 2007 - Disclaimer

ORBIFLY MET'MAP TEAM :

Programmation & Développement : Alexandra Zaïnal
Conception & Développement : Baudouin d'Aumeries
Co-Programmation & Développement : Marc-Olivier Méhu
Soutien technique & logistique : Manuel Goepfert

Contact : metmap@orbifly.com




SOURCES & CREDITS :

   NOAA